sensor_id;sensor_type;location;lat;lon;timestamp;temperature;humidity
1806;DHT22;901;48.142;11.516;2023-02-15T00:01:57;1.60;99.90
1806;DHT22;901;48.142;11.516;2023-02-15T00:04:25;1.60;99.90
1806;DHT22;901;48.142;11.516;2023-02-15T00:07:12;1.50;99.90
1806;DHT22;901;48.142;11.516;2023-02-15T00:09:39;1.50;99.90
1806;DHT22;901;48.142;11.516;2023-02-15T00:12:06;1.50;99.90
1806;DHT22;901;48.142;11.516;2023-02-15T00:14:34;1.60;99.90
1806;DHT22;901;48.142;11.516;2023-02-15T00:17:01;1.70;99.90
1806;DHT22;901;48.142;11.516;2023-02-15T00:19:28;1.70;99.90
1806;DHT22;901;48.142;11.516;2023-02-15T00:21:55;1.60;99.90
1806;DHT22;901;48.142;11.516;2023-02-15T00:24:22;1.60;99.90
1806;DHT22;901;48.142;11.516;2023-02-15T00:26:49;1.60;99.90
1806;DHT22;901;48.142;11.516;2023-02-15T00:29:17;1.40;99.90
1806;DHT22;901;48.142;11.516;2023-02-15T00:31:45;1.30;99.90
1806;DHT22;901;48.142;11.516;2023-02-15T00:34:15;1.50;99.90
1806;DHT22;901;48.142;11.516;2023-02-15T00:36:43;1.50;99.90
1806;DHT22;901;48.142;11.516;2023-02-15T00:39:10;1.40;99.90
1806;DHT22;901;48.142;11.516;2023-02-15T00:41:37;1.50;99.90
1806;DHT22;901;48.142;11.516;2023-02-15T00:44:04;1.50;99.90
1806;DHT22;901;48.142;11.516;2023-02-15T00:46:31;1.40;99.90
1806;DHT22;901;48.142;11.516;2023-02-15T00:49:00;1.40;99.90
1806;DHT22;901;48.142;11.516;2023-02-15T00:51:27;1.30;99.90
1806;DHT22;901;48.142;11.516;2023-02-15T00:53:53;1.30;99.90
1806;DHT22;901;48.142;11.516;2023-02-15T00:56:21;1.20;99.90
1806;DHT22;901;48.142;11.516;2023-02-15T00:58:48;1.20;99.90
1806;DHT22;901;48.142;11.516;2023-02-15T01:01:16;1.20;99.90
1806;DHT22;901;48.142;11.516;2023-02-15T01:03:44;1.10;99.90
1806;DHT22;901;48.142;11.516;2023-02-15T01:06:13;1.10;99.90
1806;DHT22;901;48.142;11.516;2023-02-15T01:08:40;1.00;99.90
1806;DHT22;901;48.142;11.516;2023-02-15T01:11:09;1.00;99.90
1806;DHT22;901;48.142;11.516;2023-02-15T01:13:37;0.80;99.90
1806;DHT22;901;48.142;11.516;2023-02-15T01:16:04;0.70;99.90
1806;DHT22;901;48.142;11.516;2023-02-15T01:18:31;0.60;99.90
1806;DHT22;901;48.142;11.516;2023-02-15T01:20:58;0.60;99.90
1806;DHT22;901;48.142;11.516;2023-02-15T01:23:26;0.70;99.90
1806;DHT22;901;48.142;11.516;2023-02-15T01:25:53;0.70;99.90
1806;DHT22;901;48.142;11.516;2023-02-15T01:28:20;0.70;99.90
1806;DHT22;901;48.142;11.516;2023-02-15T01:30:47;0.50;99.90
1806;DHT22;901;48.142;11.516;2023-02-15T01:33:13;0.40;99.90
1806;DHT22;901;48.142;11.516;2023-02-15T01:35:44;0.30;99.90
1806;DHT22;901;48.142;11.516;2023-02-15T01:38:11;0.30;99.90
1806;DHT22;901;48.142;11.516;2023-02-15T01:40:40;0.40;99.90
1806;DHT22;901;48.142;11.516;2023-02-15T01:43:09;0.50;99.90
1806;DHT22;901;48.142;11.516;2023-02-15T01:45:38;0.50;99.90
1806;DHT22;901;48.142;11.516;2023-02-15T01:48:10;0.40;99.90
1806;DHT22;901;48.142;11.516;2023-02-15T01:50:42;0.50;99.90
1806;DHT22;901;48.142;11.516;2023-02-15T01:53:13;0.60;99.90
1806;DHT22;901;48.142;11.516;2023-02-15T01:55:45;0.70;99.90
1806;DHT22;901;48.142;11.516;2023-02-15T01:58:14;0.80;99.90
1806;DHT22;901;48.142;11.516;2023-02-15T02:00:41;0.80;99.90
1806;DHT22;901;48.142;11.516;2023-02-15T02:03:08;0.80;99.90
1806;DHT22;901;48.142;11.516;2023-02-15T02:05:35;0.90;99.90
1806;DHT22;901;48.142;11.516;2023-02-15T02:08:04;0.90;99.90
1806;DHT22;901;48.142;11.516;2023-02-15T02:10:31;0.90;99.90
1806;DHT22;901;48.142;11.516;2023-02-15T02:13:03;0.80;99.90
1806;DHT22;901;48.142;11.516;2023-02-15T02:15:37;0.90;99.90
1806;DHT22;901;48.142;11.516;2023-02-15T02:18:14;0.90;99.90
1806;DHT22;901;48.142;11.516;2023-02-15T02:21:02;0.80;99.90
1806;DHT22;901;48.142;11.516;2023-02-15T02:23:44;0.80;99.90
1806;DHT22;901;48.142;11.516;2023-02-15T02:30:04;0.60;99.90
1806;DHT22;901;48.142;11.516;2023-02-15T02:33:03;0.70;99.90
1806;DHT22;901;48.142;11.516;2023-02-15T02:35:38;0.30;99.90
1806;DHT22;901;48.142;11.516;2023-02-15T02:38:10;0.30;99.90
1806;DHT22;901;48.142;11.516;2023-02-15T02:40:45;0.40;99.90
1806;DHT22;901;48.142;11.516;2023-02-15T02:43:19;0.30;99.90
1806;DHT22;901;48.142;11.516;2023-02-15T02:45:52;0.30;99.90
1806;DHT22;901;48.142;11.516;2023-02-15T02:48:24;0.40;99.90
1806;DHT22;901;48.142;11.516;2023-02-15T02:50:52;0.60;99.90
1806;DHT22;901;48.142;11.516;2023-02-15T02:53:19;0.60;99.90
1806;DHT22;901;48.142;11.516;2023-02-15T02:55:47;0.50;99.90
1806;DHT22;901;48.142;11.516;2023-02-15T02:58:18;0.50;99.90
1806;DHT22;901;48.142;11.516;2023-02-15T03:00:50;0.50;99.90
1806;DHT22;901;48.142;11.516;2023-02-15T03:03:23;0.40;99.90
1806;DHT22;901;48.142;11.516;2023-02-15T03:05:54;0.30;99.90
1806;DHT22;901;48.142;11.516;2023-02-15T03:08:23;0.20;99.90
1806;DHT22;901;48.142;11.516;2023-02-15T03:10:54;0.30;99.90
1806;DHT22;901;48.142;11.516;2023-02-15T03:13:22;0.40;99.90
1806;DHT22;901;48.142;11.516;2023-02-15T03:15:50;0.40;99.90
1806;DHT22;901;48.142;11.516;2023-02-15T03:18:43;0.50;99.90
1806;DHT22;901;48.142;11.516;2023-02-15T03:21:19;0.60;99.90
1806;DHT22;901;48.142;11.516;2023-02-15T03:23:51;0.70;99.90
1806;DHT22;901;48.142;11.516;2023-02-15T03:26:19;0.60;99.90
1806;DHT22;901;48.142;11.516;2023-02-15T03:28:49;0.50;99.90
1806;DHT22;901;48.142;11.516;2023-02-15T03:31:18;0.40;99.90
1806;DHT22;901;48.142;11.516;2023-02-15T03:33:52;0.50;99.90
1806;DHT22;901;48.142;11.516;2023-02-15T03:36:23;0.50;99.90
1806;DHT22;901;48.142;11.516;2023-02-15T03:38:55;0.60;99.90
1806;DHT22;901;48.142;11.516;2023-02-15T03:41:27;0.70;99.90
1806;DHT22;901;48.142;11.516;2023-02-15T03:43:58;0.70;99.90
1806;DHT22;901;48.142;11.516;2023-02-15T03:46:29;0.70;99.90
1806;DHT22;901;48.142;11.516;2023-02-15T03:49:03;0.70;99.90
1806;DHT22;901;48.142;11.516;2023-02-15T03:51:34;0.80;99.90
1806;DHT22;901;48.142;11.516;2023-02-15T03:54:04;0.80;99.90
1806;DHT22;901;48.142;11.516;2023-02-15T03:56:33;0.90;99.90
1806;DHT22;901;48.142;11.516;2023-02-15T03:59:00;0.90;99.90
1806;DHT22;901;48.142;11.516;2023-02-15T04:01:50;0.90;99.90
1806;DHT22;901;48.142;11.516;2023-02-15T04:04:30;0.90;99.90
1806;DHT22;901;48.142;11.516;2023-02-15T04:06:58;0.90;99.90
1806;DHT22;901;48.142;11.516;2023-02-15T04:09:25;0.80;99.90
1806;DHT22;901;48.142;11.516;2023-02-15T04:12:09;0.70;99.90
1806;DHT22;901;48.142;11.516;2023-02-15T04:14:36;0.70;99.90
1806;DHT22;901;48.142;11.516;2023-02-15T04:17:21;0.70;99.90
1806;DHT22;901;48.142;11.516;2023-02-15T04:19:49;0.60;99.90
1806;DHT22;901;48.142;11.516;2023-02-15T04:22:33;0.60;99.90
1806;DHT22;901;48.142;11.516;2023-02-15T04:25:18;0.70;99.90
1806;DHT22;901;48.142;11.516;2023-02-15T04:27:47;0.70;99.90
1806;DHT22;901;48.142;11.516;2023-02-15T04:30:15;0.70;99.90
1806;DHT22;901;48.142;11.516;2023-02-15T04:32:42;0.70;99.90
1806;DHT22;901;48.142;11.516;2023-02-15T04:35:10;0.80;99.90
1806;DHT22;901;48.142;11.516;2023-02-15T04:37:38;0.80;99.90
1806;DHT22;901;48.142;11.516;2023-02-15T04:40:06;0.70;99.90
1806;DHT22;901;48.142;11.516;2023-02-15T04:42:33;0.70;99.90
1806;DHT22;901;48.142;11.516;2023-02-15T04:45:00;0.70;99.90
1806;DHT22;901;48.142;11.516;2023-02-15T04:47:27;0.70;99.90
1806;DHT22;901;48.142;11.516;2023-02-15T04:49:54;0.70;99.90
1806;DHT22;901;48.142;11.516;2023-02-15T04:52:22;0.70;99.90
1806;DHT22;901;48.142;11.516;2023-02-15T04:54:49;0.70;99.90
1806;DHT22;901;48.142;11.516;2023-02-15T04:57:16;0.70;99.90
1806;DHT22;901;48.142;11.516;2023-02-15T04:59:42;0.80;99.90
1806;DHT22;901;48.142;11.516;2023-02-15T05:02:09;0.80;99.90
1806;DHT22;901;48.142;11.516;2023-02-15T05:04:36;0.80;99.90
1806;DHT22;901;48.142;11.516;2023-02-15T05:07:03;0.80;99.90
1806;DHT22;901;48.142;11.516;2023-02-15T05:09:31;0.90;99.90
1806;DHT22;901;48.142;11.516;2023-02-15T05:11:58;0.90;99.90
1806;DHT22;901;48.142;11.516;2023-02-15T05:14:25;0.90;99.90
1806;DHT22;901;48.142;11.516;2023-02-15T05:16:51;0.80;99.90
1806;DHT22;901;48.142;11.516;2023-02-15T05:19:19;0.80;99.90
1806;DHT22;901;48.142;11.516;2023-02-15T05:21:46;0.80;99.90
1806;DHT22;901;48.142;11.516;2023-02-15T05:24:13;0.80;99.90
1806;DHT22;901;48.142;11.516;2023-02-15T05:26:58;0.80;99.90
1806;DHT22;901;48.142;11.516;2023-02-15T05:29:43;0.80;99.90
1806;DHT22;901;48.142;11.516;2023-02-15T05:32:12;0.70;99.90
1806;DHT22;901;48.142;11.516;2023-02-15T05:34:39;0.70;99.90
1806;DHT22;901;48.142;11.516;2023-02-15T05:37:06;0.70;99.90
1806;DHT22;901;48.142;11.516;2023-02-15T05:39:33;0.60;99.90
1806;DHT22;901;48.142;11.516;2023-02-15T05:42:02;0.60;99.90
1806;DHT22;901;48.142;11.516;2023-02-15T05:44:28;0.60;99.90
1806;DHT22;901;48.142;11.516;2023-02-15T05:46:55;0.60;99.90
1806;DHT22;901;48.142;11.516;2023-02-15T05:49:22;0.50;99.90
1806;DHT22;901;48.142;11.516;2023-02-15T05:51:49;0.40;99.90
1806;DHT22;901;48.142;11.516;2023-02-15T05:54:16;0.40;99.90
1806;DHT22;901;48.142;11.516;2023-02-15T05:56:42;0.40;99.90
1806;DHT22;901;48.142;11.516;2023-02-15T05:59:11;0.40;99.90
1806;DHT22;901;48.142;11.516;2023-02-15T06:01:38;0.40;99.90
1806;DHT22;901;48.142;11.516;2023-02-15T06:04:05;0.40;99.90
1806;DHT22;901;48.142;11.516;2023-02-15T06:06:31;0.50;99.90
1806;DHT22;901;48.142;11.516;2023-02-15T06:08:59;0.50;99.90
1806;DHT22;901;48.142;11.516;2023-02-15T06:11:26;0.50;99.90
1806;DHT22;901;48.142;11.516;2023-02-15T06:13:53;0.50;99.90
1806;DHT22;901;48.142;11.516;2023-02-15T06:16:21;0.50;99.90
1806;DHT22;901;48.142;11.516;2023-02-15T06:18:48;0.50;99.90
1806;DHT22;901;48.142;11.516;2023-02-15T06:21:15;0.50;99.90
1806;DHT22;901;48.142;11.516;2023-02-15T06:23:42;0.50;99.90
1806;DHT22;901;48.142;11.516;2023-02-15T06:26:09;0.50;99.90
1806;DHT22;901;48.142;11.516;2023-02-15T06:28:36;0.50;99.90
1806;DHT22;901;48.142;11.516;2023-02-15T06:31:03;0.50;99.90
1806;DHT22;901;48.142;11.516;2023-02-15T06:33:32;0.60;99.90
1806;DHT22;901;48.142;11.516;2023-02-15T06:35:59;0.60;99.90
1806;DHT22;901;48.142;11.516;2023-02-15T06:38:27;0.70;99.90
1806;DHT22;901;48.142;11.516;2023-02-15T06:40:54;0.70;99.90
1806;DHT22;901;48.142;11.516;2023-02-15T06:43:20;0.70;99.90
1806;DHT22;901;48.142;11.516;2023-02-15T06:45:47;0.70;99.90
1806;DHT22;901;48.142;11.516;2023-02-15T06:48:14;0.70;99.90
1806;DHT22;901;48.142;11.516;2023-02-15T06:50:42;0.80;99.90
1806;DHT22;901;48.142;11.516;2023-02-15T06:53:09;0.80;99.90
1806;DHT22;901;48.142;11.516;2023-02-15T06:55:36;0.70;99.90
1806;DHT22;901;48.142;11.516;2023-02-15T06:58:03;0.70;99.90
1806;DHT22;901;48.142;11.516;2023-02-15T07:00:29;0.70;99.90
1806;DHT22;901;48.142;11.516;2023-02-15T07:02:57;0.80;99.90
1806;DHT22;901;48.142;11.516;2023-02-15T07:05:24;0.80;99.90
1806;DHT22;901;48.142;11.516;2023-02-15T07:07:57;0.80;99.90
1806;DHT22;901;48.142;11.516;2023-02-15T07:10:24;0.80;99.90
1806;DHT22;901;48.142;11.516;2023-02-15T07:12:51;0.90;99.90
1806;DHT22;901;48.142;11.516;2023-02-15T07:15:19;1.00;99.90
1806;DHT22;901;48.142;11.516;2023-02-15T07:17:49;1.10;99.90
1806;DHT22;901;48.142;11.516;2023-02-15T07:20:19;1.20;99.90
1806;DHT22;901;48.142;11.516;2023-02-15T07:22:46;1.20;99.90
1806;DHT22;901;48.142;11.516;2023-02-15T07:25:14;1.30;99.90
1806;DHT22;901;48.142;11.516;2023-02-15T07:27:42;1.40;99.90
1806;DHT22;901;48.142;11.516;2023-02-15T07:30:11;1.40;99.90
1806;DHT22;901;48.142;11.516;2023-02-15T07:32:38;1.40;99.90
1806;DHT22;901;48.142;11.516;2023-02-15T07:35:25;1.30;99.90
1806;DHT22;901;48.142;11.516;2023-02-15T07:37:52;1.40;99.90
1806;DHT22;901;48.142;11.516;2023-02-15T07:40:21;1.50;99.90
1806;DHT22;901;48.142;11.516;2023-02-15T07:42:49;1.50;99.90
1806;DHT22;901;48.142;11.516;2023-02-15T07:45:18;1.60;99.90
1806;DHT22;901;48.142;11.516;2023-02-15T07:47:45;1.60;99.90
1806;DHT22;901;48.142;11.516;2023-02-15T07:50:12;1.70;99.90
1806;DHT22;901;48.142;11.516;2023-02-15T07:52:39;1.70;99.90
1806;DHT22;901;48.142;11.516;2023-02-15T07:55:06;1.70;99.90
1806;DHT22;901;48.142;11.516;2023-02-15T07:57:35;1.80;99.90
1806;DHT22;901;48.142;11.516;2023-02-15T08:00:02;1.80;99.90
1806;DHT22;901;48.142;11.516;2023-02-15T08:02:29;1.90;99.90
1806;DHT22;901;48.142;11.516;2023-02-15T08:04:56;2.00;99.90
1806;DHT22;901;48.142;11.516;2023-02-15T08:07:23;2.10;99.90
1806;DHT22;901;48.142;11.516;2023-02-15T08:09:50;2.20;99.90
1806;DHT22;901;48.142;11.516;2023-02-15T08:12:16;2.20;99.90
1806;DHT22;901;48.142;11.516;2023-02-15T08:14:45;2.20;99.90
1806;DHT22;901;48.142;11.516;2023-02-15T08:17:11;2.40;99.90
1806;DHT22;901;48.142;11.516;2023-02-15T08:19:38;2.60;99.90
1806;DHT22;901;48.142;11.516;2023-02-15T08:22:06;2.70;99.90
1806;DHT22;901;48.142;11.516;2023-02-15T08:24:36;2.80;99.90
1806;DHT22;901;48.142;11.516;2023-02-15T08:27:04;2.90;99.90
1806;DHT22;901;48.142;11.516;2023-02-15T08:29:32;2.80;99.90
1806;DHT22;901;48.142;11.516;2023-02-15T08:32:02;2.90;99.90
1806;DHT22;901;48.142;11.516;2023-02-15T08:34:30;3.10;99.90
1806;DHT22;901;48.142;11.516;2023-02-15T08:36:57;3.30;99.90
1806;DHT22;901;48.142;11.516;2023-02-15T08:39:24;3.40;99.90
1806;DHT22;901;48.142;11.516;2023-02-15T08:41:51;3.50;99.90
1806;DHT22;901;48.142;11.516;2023-02-15T08:44:19;3.70;99.90
1806;DHT22;901;48.142;11.516;2023-02-15T08:46:47;3.40;99.90
1806;DHT22;901;48.142;11.516;2023-02-15T08:49:18;3.60;99.90
1806;DHT22;901;48.142;11.516;2023-02-15T08:51:45;3.70;99.90
1806;DHT22;901;48.142;11.516;2023-02-15T08:54:14;3.70;99.90
1806;DHT22;901;48.142;11.516;2023-02-15T08:56:42;3.80;99.90
1806;DHT22;901;48.142;11.516;2023-02-15T08:59:13;3.90;99.90
1806;DHT22;901;48.142;11.516;2023-02-15T09:01:40;4.00;99.90
1806;DHT22;901;48.142;11.516;2023-02-15T09:04:08;3.90;99.90
1806;DHT22;901;48.142;11.516;2023-02-15T09:06:37;3.90;99.90
1806;DHT22;901;48.142;11.516;2023-02-15T09:09:05;3.90;99.90
1806;DHT22;901;48.142;11.516;2023-02-15T09:11:35;3.90;99.90
1806;DHT22;901;48.142;11.516;2023-02-15T09:14:04;3.90;99.90
1806;DHT22;901;48.142;11.516;2023-02-15T09:16:34;3.80;99.90
1806;DHT22;901;48.142;11.516;2023-02-15T09:19:02;3.80;99.90
1806;DHT22;901;48.142;11.516;2023-02-15T09:21:30;3.80;99.90
1806;DHT22;901;48.142;11.516;2023-02-15T09:24:01;3.80;99.90
1806;DHT22;901;48.142;11.516;2023-02-15T09:26:29;3.80;99.90
1806;DHT22;901;48.142;11.516;2023-02-15T09:28:58;3.80;99.90
1806;DHT22;901;48.142;11.516;2023-02-15T09:31:27;3.80;99.90
1806;DHT22;901;48.142;11.516;2023-02-15T09:33:55;3.90;99.90
1806;DHT22;901;48.142;11.516;2023-02-15T09:36:27;3.90;99.90
1806;DHT22;901;48.142;11.516;2023-02-15T09:38:56;3.90;99.90
1806;DHT22;901;48.142;11.516;2023-02-15T09:44:30;4.00;99.90
1806;DHT22;901;48.142;11.516;2023-02-15T09:47:16;4.10;99.90
1806;DHT22;901;48.142;11.516;2023-02-15T09:49:52;4.20;99.90
1806;DHT22;901;48.142;11.516;2023-02-15T09:55:34;4.40;99.90
1806;DHT22;901;48.142;11.516;2023-02-15T09:58:10;4.50;99.90
1806;DHT22;901;48.142;11.516;2023-02-15T10:00:47;4.60;99.90
1806;DHT22;901;48.142;11.516;2023-02-15T10:03:29;4.70;99.90
1806;DHT22;901;48.142;11.516;2023-02-15T10:06:11;4.80;99.90
1806;DHT22;901;48.142;11.516;2023-02-15T10:08:54;4.80;99.90
1806;DHT22;901;48.142;11.516;2023-02-15T10:11:29;5.00;99.90
1806;DHT22;901;48.142;11.516;2023-02-15T10:14:20;4.90;99.90
1806;DHT22;901;48.142;11.516;2023-02-15T10:16:58;4.80;99.90
1806;DHT22;901;48.142;11.516;2023-02-15T10:19:36;4.90;99.90
1806;DHT22;901;48.142;11.516;2023-02-15T10:22:17;5.10;99.90
1806;DHT22;901;48.142;11.516;2023-02-15T10:25:21;5.20;99.90
1806;DHT22;901;48.142;11.516;2023-02-15T10:27:51;5.30;99.90
1806;DHT22;901;48.142;11.516;2023-02-15T10:30:23;5.50;99.90
1806;DHT22;901;48.142;11.516;2023-02-15T10:32:59;5.40;99.90
1806;DHT22;901;48.142;11.516;2023-02-15T10:35:34;5.50;99.90
1806;DHT22;901;48.142;11.516;2023-02-15T10:38:12;5.70;99.90
1806;DHT22;901;48.142;11.516;2023-02-15T10:40:51;5.80;99.90
1806;DHT22;901;48.142;11.516;2023-02-15T10:43:35;6.00;99.90
1806;DHT22;901;48.142;11.516;2023-02-15T10:46:11;6.20;99.90
1806;DHT22;901;48.142;11.516;2023-02-15T10:51:52;6.40;99.90
1806;DHT22;901;48.142;11.516;2023-02-15T10:54:30;6.50;99.90
1806;DHT22;901;48.142;11.516;2023-02-15T10:57:04;6.50;99.90
1806;DHT22;901;48.142;11.516;2023-02-15T10:59:53;6.60;99.90
1806;DHT22;901;48.142;11.516;2023-02-15T11:02:35;6.70;99.90
1806;DHT22;901;48.142;11.516;2023-02-15T11:05:19;6.70;99.90
1806;DHT22;901;48.142;11.516;2023-02-15T11:07:49;6.70;99.90
1806;DHT22;901;48.142;11.516;2023-02-15T11:10:26;6.70;99.90
1806;DHT22;901;48.142;11.516;2023-02-15T11:12:55;6.70;99.90
1806;DHT22;901;48.142;11.516;2023-02-15T11:15:28;6.70;99.90
1806;DHT22;901;48.142;11.516;2023-02-15T11:18:01;6.70;99.90
1806;DHT22;901;48.142;11.516;2023-02-15T11:20:35;6.70;99.90
1806;DHT22;901;48.142;11.516;2023-02-15T11:23:13;6.70;99.90
1806;DHT22;901;48.142;11.516;2023-02-15T11:25:44;6.70;99.90
1806;DHT22;901;48.142;11.516;2023-02-15T11:28:18;6.80;99.90
1806;DHT22;901;48.142;11.516;2023-02-15T11:30:48;6.70;99.90
1806;DHT22;901;48.142;11.516;2023-02-15T11:33:22;6.80;99.90
1806;DHT22;901;48.142;11.516;2023-02-15T11:35:53;6.80;99.90
1806;DHT22;901;48.142;11.516;2023-02-15T11:38:24;6.90;99.90
1806;DHT22;901;48.142;11.516;2023-02-15T11:40:56;6.90;99.90
1806;DHT22;901;48.142;11.516;2023-02-15T11:43:28;7.00;99.90
1806;DHT22;901;48.142;11.516;2023-02-15T11:45:56;7.00;99.90
1806;DHT22;901;48.142;11.516;2023-02-15T11:48:24;7.10;99.90
1806;DHT22;901;48.142;11.516;2023-02-15T11:50:51;7.20;99.90
1806;DHT22;901;48.142;11.516;2023-02-15T11:53:20;7.20;99.90
1806;DHT22;901;48.142;11.516;2023-02-15T11:55:50;7.10;99.90
1806;DHT22;901;48.142;11.516;2023-02-15T11:58:25;7.30;99.90
1806;DHT22;901;48.142;11.516;2023-02-15T12:00:58;7.40;99.90
1806;DHT22;901;48.142;11.516;2023-02-15T12:03:50;7.50;99.90
1806;DHT22;901;48.142;11.516;2023-02-15T12:06:25;7.60;99.90
1806;DHT22;901;48.142;11.516;2023-02-15T12:08:59;7.60;99.90
1806;DHT22;901;48.142;11.516;2023-02-15T12:11:33;7.70;99.90
1806;DHT22;901;48.142;11.516;2023-02-15T12:14:03;7.80;99.90
1806;DHT22;901;48.142;11.516;2023-02-15T12:16:40;7.90;99.90
1806;DHT22;901;48.142;11.516;2023-02-15T12:19:20;8.10;99.90
1806;DHT22;901;48.142;11.516;2023-02-15T12:21:50;8.10;99.90
1806;DHT22;901;48.142;11.516;2023-02-15T12:24:19;8.20;99.90
1806;DHT22;901;48.142;11.516;2023-02-15T12:26:56;8.20;99.90
1806;DHT22;901;48.142;11.516;2023-02-15T12:29:27;8.10;99.90
1806;DHT22;901;48.142;11.516;2023-02-15T12:31:56;8.30;99.90
1806;DHT22;901;48.142;11.516;2023-02-15T12:34:29;8.40;99.90
1806;DHT22;901;48.142;11.516;2023-02-15T12:37:01;8.40;99.90
1806;DHT22;901;48.142;11.516;2023-02-15T12:39:34;8.40;99.90
1806;DHT22;901;48.142;11.516;2023-02-15T12:42:05;8.50;99.90
1806;DHT22;901;48.142;11.516;2023-02-15T12:44:56;8.50;99.90
1806;DHT22;901;48.142;11.516;2023-02-15T12:47:23;8.60;99.90
1806;DHT22;901;48.142;11.516;2023-02-15T12:50:08;8.50;99.90
1806;DHT22;901;48.142;11.516;2023-02-15T12:53:06;8.60;99.90
1806;DHT22;901;48.142;11.516;2023-02-15T12:55:36;8.50;99.90
1806;DHT22;901;48.142;11.516;2023-02-15T12:58:12;8.60;99.90
1806;DHT22;901;48.142;11.516;2023-02-15T13:01:02;8.70;99.90
1806;DHT22;901;48.142;11.516;2023-02-15T13:03:30;8.60;99.90
1806;DHT22;901;48.142;11.516;2023-02-15T13:06:01;8.60;99.90
1806;DHT22;901;48.142;11.516;2023-02-15T13:08:35;8.80;99.90
1806;DHT22;901;48.142;11.516;2023-02-15T13:11:08;8.80;99.90
1806;DHT22;901;48.142;11.516;2023-02-15T13:13:52;8.80;99.90
1806;DHT22;901;48.142;11.516;2023-02-15T13:16:30;8.90;99.90
1806;DHT22;901;48.142;11.516;2023-02-15T13:19:02;8.90;99.90
1806;DHT22;901;48.142;11.516;2023-02-15T13:21:37;8.80;99.90
1806;DHT22;901;48.142;11.516;2023-02-15T13:24:18;8.90;99.90
1806;DHT22;901;48.142;11.516;2023-02-15T13:26:57;9.00;99.90
1806;DHT22;901;48.142;11.516;2023-02-15T13:29:34;8.90;99.90
1806;DHT22;901;48.142;11.516;2023-02-15T13:32:22;8.90;99.90
1806;DHT22;901;48.142;11.516;2023-02-15T13:34:51;8.90;99.90
1806;DHT22;901;48.142;11.516;2023-02-15T13:37:32;8.90;99.90
1806;DHT22;901;48.142;11.516;2023-02-15T13:40:07;9.00;99.90
1806;DHT22;901;48.142;11.516;2023-02-15T13:42:41;8.90;99.90
1806;DHT22;901;48.142;11.516;2023-02-15T13:45:25;9.00;99.90
1806;DHT22;901;48.142;11.516;2023-02-15T13:48:01;9.00;99.90
1806;DHT22;901;48.142;11.516;2023-02-15T13:50:39;9.10;99.90
1806;DHT22;901;48.142;11.516;2023-02-15T13:53:28;9.10;99.90
1806;DHT22;901;48.142;11.516;2023-02-15T13:56:04;9.10;99.90
1806;DHT22;901;48.142;11.516;2023-02-15T13:59:13;9.00;99.90
1806;DHT22;901;48.142;11.516;2023-02-15T14:01:46;8.90;99.90
1806;DHT22;901;48.142;11.516;2023-02-15T14:04:44;8.90;99.90
1806;DHT22;901;48.142;11.516;2023-02-15T14:10:25;8.90;99.90
1806;DHT22;901;48.142;11.516;2023-02-15T14:13:12;8.80;99.90
1806;DHT22;901;48.142;11.516;2023-02-15T14:15:49;8.70;99.90
1806;DHT22;901;48.142;11.516;2023-02-15T14:18:22;8.70;99.90
1806;DHT22;901;48.142;11.516;2023-02-15T14:20:58;8.60;99.90
1806;DHT22;901;48.142;11.516;2023-02-15T14:23:38;8.60;99.90
1806;DHT22;901;48.142;11.516;2023-02-15T14:26:14;8.50;99.90
1806;DHT22;901;48.142;11.516;2023-02-15T14:28:47;8.50;99.90
1806;DHT22;901;48.142;11.516;2023-02-15T14:31:18;8.40;99.90
1806;DHT22;901;48.142;11.516;2023-02-15T14:33:54;8.40;99.90
1806;DHT22;901;48.142;11.516;2023-02-15T14:36:23;8.40;99.90
1806;DHT22;901;48.142;11.516;2023-02-15T14:38:59;8.50;99.90
1806;DHT22;901;48.142;11.516;2023-02-15T14:41:36;8.40;99.90
1806;DHT22;901;48.142;11.516;2023-02-15T14:44:11;8.30;99.90
1806;DHT22;901;48.142;11.516;2023-02-15T14:46:45;8.30;99.90
1806;DHT22;901;48.142;11.516;2023-02-15T14:49:15;8.40;99.90
1806;DHT22;901;48.142;11.516;2023-02-15T14:52:03;8.30;99.90
1806;DHT22;901;48.142;11.516;2023-02-15T14:54:58;8.30;99.90
1806;DHT22;901;48.142;11.516;2023-02-15T14:57:27;8.40;99.90
1806;DHT22;901;48.142;11.516;2023-02-15T14:59:58;8.30;99.90
1806;DHT22;901;48.142;11.516;2023-02-15T15:02:30;8.20;99.90
1806;DHT22;901;48.142;11.516;2023-02-15T15:05:08;8.10;99.90
1806;DHT22;901;48.142;11.516;2023-02-15T15:07:40;8.10;99.90
1806;DHT22;901;48.142;11.516;2023-02-15T15:16:48;7.80;99.90
1806;DHT22;901;48.142;11.516;2023-02-15T15:22:31;7.80;99.90
1806;DHT22;901;48.142;11.516;2023-02-15T15:24:58;7.80;99.90
1806;DHT22;901;48.142;11.516;2023-02-15T15:27:48;7.80;99.90
1806;DHT22;901;48.142;11.516;2023-02-15T15:42:49;7.50;99.90
1806;DHT22;901;48.142;11.516;2023-02-15T15:45:41;7.40;99.90
1806;DHT22;901;48.142;11.516;2023-02-15T15:48:32;7.20;99.90
1806;DHT22;901;48.142;11.516;2023-02-15T15:51:03;7.10;99.90
1806;DHT22;901;48.142;11.516;2023-02-15T15:53:37;6.90;99.90
1806;DHT22;901;48.142;11.516;2023-02-15T15:56:10;6.80;99.90
1806;DHT22;901;48.142;11.516;2023-02-15T15:58:46;6.70;99.90
1806;DHT22;901;48.142;11.516;2023-02-15T16:01:14;6.60;99.90
1806;DHT22;901;48.142;11.516;2023-02-15T16:03:49;6.50;99.90
1806;DHT22;901;48.142;11.516;2023-02-15T16:06:30;6.40;99.90
1806;DHT22;901;48.142;11.516;2023-02-15T16:09:10;6.20;99.90
1806;DHT22;901;48.142;11.516;2023-02-15T16:11:37;6.10;99.90
1806;DHT22;901;48.142;11.516;2023-02-15T16:14:12;6.10;99.90
1806;DHT22;901;48.142;11.516;2023-02-15T16:16:40;6.00;99.90
1806;DHT22;901;48.142;11.516;2023-02-15T16:19:24;5.90;99.90
1806;DHT22;901;48.142;11.516;2023-02-15T16:21:53;5.90;99.90
1806;DHT22;901;48.142;11.516;2023-02-15T16:27:36;5.70;99.90
1806;DHT22;901;48.142;11.516;2023-02-15T16:30:21;5.40;99.90
1806;DHT22;901;48.142;11.516;2023-02-15T16:32:48;5.20;99.90
1806;DHT22;901;48.142;11.516;2023-02-15T16:35:16;5.10;99.90
1806;DHT22;901;48.142;11.516;2023-02-15T16:37:44;4.90;99.90
1806;DHT22;901;48.142;11.516;2023-02-15T16:40:32;4.70;99.90
1806;DHT22;901;48.142;11.516;2023-02-15T16:43:02;4.40;99.90
1806;DHT22;901;48.142;11.516;2023-02-15T16:45:32;4.10;99.90
1806;DHT22;901;48.142;11.516;2023-02-15T16:48:01;4.00;99.90
1806;DHT22;901;48.142;11.516;2023-02-15T16:50:33;3.70;99.90
1806;DHT22;901;48.142;11.516;2023-02-15T16:53:02;3.50;99.90
1806;DHT22;901;48.142;11.516;2023-02-15T16:55:35;3.40;99.90
1806;DHT22;901;48.142;11.516;2023-02-15T16:58:06;3.40;99.90
1806;DHT22;901;48.142;11.516;2023-02-15T17:00:35;3.10;99.90
1806;DHT22;901;48.142;11.516;2023-02-15T17:03:05;3.10;99.90
1806;DHT22;901;48.142;11.516;2023-02-15T17:05:40;3.00;99.90
1806;DHT22;901;48.142;11.516;2023-02-15T17:08:14;3.00;99.90
1806;DHT22;901;48.142;11.516;2023-02-15T17:10:45;2.90;99.90
1806;DHT22;901;48.142;11.516;2023-02-15T17:13:14;2.80;99.90
1806;DHT22;901;48.142;11.516;2023-02-15T17:15:43;2.70;99.90
1806;DHT22;901;48.142;11.516;2023-02-15T17:18:15;2.70;99.90
1806;DHT22;901;48.142;11.516;2023-02-15T17:20:44;2.70;99.90
1806;DHT22;901;48.142;11.516;2023-02-15T17:23:24;2.70;99.90
1806;DHT22;901;48.142;11.516;2023-02-15T17:25:54;2.60;99.90
1806;DHT22;901;48.142;11.516;2023-02-15T17:28:23;2.60;99.90
1806;DHT22;901;48.142;11.516;2023-02-15T17:30:52;2.60;99.90